sensor_id;sensor_type;location;lat;lon;timestamp;P1;P2;P0
69746;PMS7003;57018;50.278;19.134;2022-07-23T00:01:22;38.50;35.00;24.25
69746;PMS7003;57018;50.278;19.134;2022-07-23T00:03:48;40.50;36.50;23.75
69746;PMS7003;57018;50.278;19.134;2022-07-23T00:06:15;42.00;35.75;23.50
69746;PMS7003;57018;50.278;19.134;2022-07-23T00:08:41;37.75;32.75;21.75
69746;PMS7003;57018;50.278;19.134;2022-07-23T00:11:07;39.50;34.75;23.25
69746;PMS7003;57018;50.278;19.134;2022-07-23T00:13:33;41.50;36.00;23.75
69746;PMS7003;57018;50.278;19.134;2022-07-23T00:15:59;42.50;35.50;24.50
69746;PMS7003;57018;50.278;19.134;2022-07-23T00:18:25;36.50;33.25;23.00
69746;PMS7003;57018;50.278;19.134;2022-07-23T00:20:51;37.50;34.50;23.50
69746;PMS7003;57018;50.278;19.134;2022-07-23T00:23:17;32.50;30.25;21.25
69746;PMS7003;57018;50.278;19.134;2022-07-23T00:25:43;36.75;32.25;21.25
69746;PMS7003;57018;50.278;19.134;2022-07-23T00:28:10;39.50;36.00;24.25
69746;PMS7003;57018;50.278;19.134;2022-07-23T00:30:37;37.75;33.25;23.50
69746;PMS7003;57018;50.278;19.134;2022-07-23T00:33:04;42.75;34.75;23.75
69746;PMS7003;57018;50.278;19.134;2022-07-23T00:35:33;45.25;35.50;23.50
69746;PMS7003;57018;50.278;19.134;2022-07-23T00:38:01;30.50;29.75;20.50
69746;PMS7003;57018;50.278;19.134;2022-07-23T00:40:29;37.00;34.25;23.00
69746;PMS7003;57018;50.278;19.134;2022-07-23T00:42:56;34.25;31.75;22.50
69746;PMS7003;57018;50.278;19.134;2022-07-23T00:45:22;38.25;33.50;23.00
69746;PMS7003;57018;50.278;19.134;2022-07-23T00:47:48;35.00;33.75;22.50
69746;PMS7003;57018;50.278;19.134;2022-07-23T00:50:14;35.50;33.50;22.00
69746;PMS7003;57018;50.278;19.134;2022-07-23T00:52:41;36.75;33.00;21.50
69746;PMS7003;57018;50.278;19.134;2022-07-23T00:55:07;34.75;32.75;22.75
69746;PMS7003;57018;50.278;19.134;2022-07-23T00:57:35;33.00;29.25;20.75
69746;PMS7003;57018;50.278;19.134;2022-07-23T01:00:03;44.50;37.50;25.50
69746;PMS7003;57018;50.278;19.134;2022-07-23T01:02:34;40.25;36.25;23.50
69746;PMS7003;57018;50.278;19.134;2022-07-23T01:05:00;40.00;35.75;23.75
69746;PMS7003;57018;50.278;19.134;2022-07-23T01:07:26;41.00;36.50;24.00
69746;PMS7003;57018;50.278;19.134;2022-07-23T01:09:52;42.50;35.50;24.50
69746;PMS7003;57018;50.278;19.134;2022-07-23T01:12:20;40.00;35.50;24.25
69746;PMS7003;57018;50.278;19.134;2022-07-23T01:14:55;34.75;33.25;23.25
69746;PMS7003;57018;50.278;19.134;2022-07-23T01:17:23;42.25;36.75;24.25
69746;PMS7003;57018;50.278;19.134;2022-07-23T01:19:49;38.00;33.25;23.50
69746;PMS7003;57018;50.278;19.134;2022-07-23T01:22:17;34.75;30.50;22.50
69746;PMS7003;57018;50.278;19.134;2022-07-23T01:24:44;38.00;33.50;22.00
69746;PMS7003;57018;50.278;19.134;2022-07-23T01:27:10;34.75;32.25;22.50
69746;PMS7003;57018;50.278;19.134;2022-07-23T01:29:38;34.75;32.75;22.50
69746;PMS7003;57018;50.278;19.134;2022-07-23T01:32:05;44.00;35.25;23.50
69746;PMS7003;57018;50.278;19.134;2022-07-23T01:34:31;36.75;34.50;23.25
69746;PMS7003;57018;50.278;19.134;2022-07-23T01:36:57;35.75;33.50;23.00
69746;PMS7003;57018;50.278;19.134;2022-07-23T01:39:23;33.25;32.25;19.75
69746;PMS7003;57018;50.278;19.134;2022-07-23T01:41:49;37.00;32.25;22.25
69746;PMS7003;57018;50.278;19.134;2022-07-23T01:47:47;36.75;32.50;22.25
69746;PMS7003;57018;50.278;19.134;2022-07-23T01:50:13;37.75;34.00;23.00
69746;PMS7003;57018;50.278;19.134;2022-07-23T01:52:40;40.75;32.75;22.75
69746;PMS7003;57018;50.278;19.134;2022-07-23T01:55:06;38.50;34.25;23.50
69746;PMS7003;57018;50.278;19.134;2022-07-23T01:57:32;39.50;35.75;24.50
69746;PMS7003;57018;50.278;19.134;2022-07-23T01:59:59;37.25;34.25;22.50
69746;PMS7003;57018;50.278;19.134;2022-07-23T02:02:25;41.50;35.25;23.00
69746;PMS7003;57018;50.278;19.134;2022-07-23T02:04:51;35.75;33.25;21.75
69746;PMS7003;57018;50.278;19.134;2022-07-23T02:07:17;32.00;28.25;21.50
69746;PMS7003;57018;50.278;19.134;2022-07-23T02:09:43;32.00;27.75;20.50
69746;PMS7003;57018;50.278;19.134;2022-07-23T02:12:09;33.75;33.25;21.75
69746;PMS7003;57018;50.278;19.134;2022-07-23T02:14:35;33.50;31.75;21.75
69746;PMS7003;57018;50.278;19.134;2022-07-23T02:17:01;32.25;29.75;21.50
69746;PMS7003;57018;50.278;19.134;2022-07-23T02:19:28;37.25;32.00;21.50
69746;PMS7003;57018;50.278;19.134;2022-07-23T02:21:54;29.25;23.50;21.25
69746;PMS7003;57018;50.278;19.134;2022-07-23T02:24:20;28.75;28.75;20.25
69746;PMS7003;57018;50.278;19.134;2022-07-23T02:26:46;28.75;26.25;19.25
69746;PMS7003;57018;50.278;19.134;2022-07-23T02:29:12;35.50;32.75;20.25
69746;PMS7003;57018;50.278;19.134;2022-07-23T02:31:39;30.25;30.25;21.00
69746;PMS7003;57018;50.278;19.134;2022-07-23T02:34:05;31.00;28.75;20.00
69746;PMS7003;57018;50.278;19.134;2022-07-23T02:36:32;35.75;32.25;22.00
69746;PMS7003;57018;50.278;19.134;2022-07-23T02:38:58;42.00;36.25;24.50
69746;PMS7003;57018;50.278;19.134;2022-07-23T02:41:24;32.50;31.00;21.75
69746;PMS7003;57018;50.278;19.134;2022-07-23T02:43:51;34.50;30.75;21.50
69746;PMS7003;57018;50.278;19.134;2022-07-23T02:46:17;36.75;32.50;23.50
69746;PMS7003;57018;50.278;19.134;2022-07-23T02:48:43;37.75;32.25;21.50
69746;PMS7003;57018;50.278;19.134;2022-07-23T02:51:10;38.00;31.50;21.50
69746;PMS7003;57018;50.278;19.134;2022-07-23T02:53:35;38.75;32.50;22.25
69746;PMS7003;57018;50.278;19.134;2022-07-23T02:56:02;43.75;35.50;24.25
69746;PMS7003;57018;50.278;19.134;2022-07-23T02:58:28;33.75;32.50;22.50
69746;PMS7003;57018;50.278;19.134;2022-07-23T03:00:54;34.50;32.25;21.75
69746;PMS7003;57018;50.278;19.134;2022-07-23T03:03:21;38.00;35.25;23.50
69746;PMS7003;57018;50.278;19.134;2022-07-23T03:05:47;42.50;36.50;23.25
69746;PMS7003;57018;50.278;19.134;2022-07-23T03:08:13;40.50;34.00;23.50
69746;PMS7003;57018;50.278;19.134;2022-07-23T03:10:39;42.00;35.00;24.00
69746;PMS7003;57018;50.278;19.134;2022-07-23T03:13:05;48.00;39.75;26.25
69746;PMS7003;57018;50.278;19.134;2022-07-23T03:15:31;47.25;41.25;27.25
69746;PMS7003;57018;50.278;19.134;2022-07-23T03:17:57;44.00;38.75;27.75
69746;PMS7003;57018;50.278;19.134;2022-07-23T03:20:23;48.50;40.75;26.75
69746;PMS7003;57018;50.278;19.134;2022-07-23T03:22:50;47.75;39.75;28.50
69746;PMS7003;57018;50.278;19.134;2022-07-23T03:25:16;49.50;41.25;29.00
69746;PMS7003;57018;50.278;19.134;2022-07-23T03:27:42;47.75;40.25;26.00
69746;PMS7003;57018;50.278;19.134;2022-07-23T03:30:11;47.75;40.25;26.50
69746;PMS7003;57018;50.278;19.134;2022-07-23T03:32:38;53.25;44.75;31.75
69746;PMS7003;57018;50.278;19.134;2022-07-23T03:35:04;51.25;42.25;28.00
69746;PMS7003;57018;50.278;19.134;2022-07-23T03:37:31;48.00;40.00;26.50
69746;PMS7003;57018;50.278;19.134;2022-07-23T03:39:57;49.25;38.50;25.50
69746;PMS7003;57018;50.278;19.134;2022-07-23T03:42:23;24.00;19.50;9.00
69746;PMS7003;57018;50.278;19.134;2022-07-23T03:44:49;50.50;42.25;27.00
69746;PMS7003;57018;50.278;19.134;2022-07-23T03:47:15;44.25;37.50;26.25
69746;PMS7003;57018;50.278;19.134;2022-07-23T03:49:42;51.25;42.25;26.25
69746;PMS7003;57018;50.278;19.134;2022-07-23T03:52:09;49.50;42.25;27.75
69746;PMS7003;57018;50.278;19.134;2022-07-23T03:54:35;46.75;39.75;26.25
69746;PMS7003;57018;50.278;19.134;2022-07-23T03:57:01;48.00;39.75;25.75
69746;PMS7003;57018;50.278;19.134;2022-07-23T03:59:27;39.50;36.25;25.75
69746;PMS7003;57018;50.278;19.134;2022-07-23T04:01:53;44.25;37.50;26.75
69746;PMS7003;57018;50.278;19.134;2022-07-23T04:04:19;47.25;40.25;26.50
69746;PMS7003;57018;50.278;19.134;2022-07-23T04:06:45;50.25;41.25;27.75
69746;PMS7003;57018;50.278;19.134;2022-07-23T04:09:11;44.25;38.75;27.00
69746;PMS7003;57018;50.278;19.134;2022-07-23T04:11:38;47.25;40.25;26.25
69746;PMS7003;57018;50.278;19.134;2022-07-23T04:14:04;45.75;36.75;25.25
69746;PMS7003;57018;50.278;19.134;2022-07-23T04:16:30;49.00;40.00;28.50
69746;PMS7003;57018;50.278;19.134;2022-07-23T04:18:56;47.50;38.25;26.00
69746;PMS7003;57018;50.278;19.134;2022-07-23T04:21:23;47.50;39.00;26.50
69746;PMS7003;57018;50.278;19.134;2022-07-23T04:23:50;49.75;40.75;28.50
69746;PMS7003;57018;50.278;19.134;2022-07-23T04:26:16;49.00;39.75;27.00
69746;PMS7003;57018;50.278;19.134;2022-07-23T04:28:42;51.25;39.50;27.00
69746;PMS7003;57018;50.278;19.134;2022-07-23T04:31:08;51.00;40.75;27.50
69746;PMS7003;57018;50.278;19.134;2022-07-23T04:33:34;51.75;41.75;26.50
69746;PMS7003;57018;50.278;19.134;2022-07-23T04:36:00;51.75;42.25;28.75
69746;PMS7003;57018;50.278;19.134;2022-07-23T04:38:26;52.25;39.75;27.50
69746;PMS7003;57018;50.278;19.134;2022-07-23T04:40:52;50.75;40.75;27.75
69746;PMS7003;57018;50.278;19.134;2022-07-23T04:43:18;52.50;42.25;28.50
69746;PMS7003;57018;50.278;19.134;2022-07-23T04:45:45;48.25;40.75;27.25
69746;PMS7003;57018;50.278;19.134;2022-07-23T04:48:11;52.50;43.25;29.25
69746;PMS7003;57018;50.278;19.134;2022-07-23T04:50:37;48.50;40.50;28.00
69746;PMS7003;57018;50.278;19.134;2022-07-23T04:53:04;49.75;41.25;29.25
69746;PMS7003;57018;50.278;19.134;2022-07-23T04:55:30;54.00;44.50;29.50
69746;PMS7003;57018;50.278;19.134;2022-07-23T04:57:56;53.75;44.75;29.25
69746;PMS7003;57018;50.278;19.134;2022-07-23T05:00:22;49.00;41.75;28.25
69746;PMS7003;57018;50.278;19.134;2022-07-23T05:02:48;53.75;44.25;29.25
69746;PMS7003;57018;50.278;19.134;2022-07-23T05:05:14;52.00;42.25;28.50
69746;PMS7003;57018;50.278;19.134;2022-07-23T05:07:41;50.75;42.25;29.00
69746;PMS7003;57018;50.278;19.134;2022-07-23T05:10:07;53.50;43.50;28.75
69746;PMS7003;57018;50.278;19.134;2022-07-23T05:12:33;54.25;43.00;29.25
69746;PMS7003;57018;50.278;19.134;2022-07-23T05:14:59;46.50;40.25;28.50
69746;PMS7003;57018;50.278;19.134;2022-07-23T05:17:26;56.50;45.00;30.50
69746;PMS7003;57018;50.278;19.134;2022-07-23T05:19:52;49.75;41.00;27.50
69746;PMS7003;57018;50.278;19.134;2022-07-23T05:22:18;52.75;43.75;29.50
69746;PMS7003;57018;50.278;19.134;2022-07-23T05:24:44;47.25;40.50;28.50
69746;PMS7003;57018;50.278;19.134;2022-07-23T05:27:10;48.75;41.00;28.00
69746;PMS7003;57018;50.278;19.134;2022-07-23T05:29:36;50.25;41.50;28.50
69746;PMS7003;57018;50.278;19.134;2022-07-23T05:32:02;50.75;42.75;29.50
69746;PMS7003;57018;50.278;19.134;2022-07-23T05:34:28;50.00;42.00;28.00
69746;PMS7003;57018;50.278;19.134;2022-07-23T05:36:55;54.00;44.50;29.25
69746;PMS7003;57018;50.278;19.134;2022-07-23T05:39:21;50.25;42.75;29.25
69746;PMS7003;57018;50.278;19.134;2022-07-23T05:41:47;55.75;44.50;29.50
69746;PMS7003;57018;50.278;19.134;2022-07-23T05:44:13;51.25;42.75;27.50
69746;PMS7003;57018;50.278;19.134;2022-07-23T05:46:39;51.00;39.50;26.50
69746;PMS7003;57018;50.278;19.134;2022-07-23T05:49:05;53.75;43.25;28.75
69746;PMS7003;57018;50.278;19.134;2022-07-23T05:51:31;50.50;41.25;28.25
69746;PMS7003;57018;50.278;19.134;2022-07-23T05:53:57;52.00;43.00;27.75
69746;PMS7003;57018;50.278;19.134;2022-07-23T05:56:23;50.25;40.75;27.25
69746;PMS7003;57018;50.278;19.134;2022-07-23T05:58:49;51.00;42.50;29.00
69746;PMS7003;57018;50.278;19.134;2022-07-23T06:01:15;51.00;42.50;28.25
69746;PMS7003;57018;50.278;19.134;2022-07-23T06:03:41;53.25;43.50;28.25
69746;PMS7003;57018;50.278;19.134;2022-07-23T06:06:07;53.25;44.25;28.50
69746;PMS7003;57018;50.278;19.134;2022-07-23T06:08:34;54.00;45.25;30.00
69746;PMS7003;57018;50.278;19.134;2022-07-23T06:11:00;51.25;41.75;27.75
69746;PMS7003;57018;50.278;19.134;2022-07-23T06:13:26;47.00;38.25;26.50
69746;PMS7003;57018;50.278;19.134;2022-07-23T06:15:52;52.00;42.75;28.25
69746;PMS7003;57018;50.278;19.134;2022-07-23T06:18:18;52.25;42.00;28.25
69746;PMS7003;57018;50.278;19.134;2022-07-23T06:20:44;23.50;20.00;6.75
69746;PMS7003;57018;50.278;19.134;2022-07-23T06:23:10;47.50;40.00;27.25
69746;PMS7003;57018;50.278;19.134;2022-07-23T06:25:38;53.75;44.00;28.75
69746;PMS7003;57018;50.278;19.134;2022-07-23T06:28:04;48.25;40.50;26.50
69746;PMS7003;57018;50.278;19.134;2022-07-23T06:30:30;51.50;42.50;27.50
69746;PMS7003;57018;50.278;19.134;2022-07-23T06:32:56;52.00;43.00;27.75
69746;PMS7003;57018;50.278;19.134;2022-07-23T06:35:22;49.25;41.50;27.50
69746;PMS7003;57018;50.278;19.134;2022-07-23T06:37:49;50.75;41.50;27.50
69746;PMS7003;57018;50.278;19.134;2022-07-23T06:40:15;50.25;40.25;27.25
69746;PMS7003;57018;50.278;19.134;2022-07-23T06:42:41;49.00;39.50;26.50
69746;PMS7003;57018;50.278;19.134;2022-07-23T06:45:07;40.75;36.75;26.50
69746;PMS7003;57018;50.278;19.134;2022-07-23T06:47:33;48.50;41.00;27.50
69746;PMS7003;57018;50.278;19.134;2022-07-23T06:49:59;48.25;39.50;25.75
69746;PMS7003;57018;50.278;19.134;2022-07-23T06:52:26;43.50;37.00;24.25
69746;PMS7003;57018;50.278;19.134;2022-07-23T06:54:52;47.25;39.75;25.25
69746;PMS7003;57018;50.278;19.134;2022-07-23T06:57:21;44.50;37.00;25.00
69746;PMS7003;57018;50.278;19.134;2022-07-23T06:59:48;47.00;40.00;27.00
69746;PMS7003;57018;50.278;19.134;2022-07-23T07:02:14;39.75;35.75;22.75
69746;PMS7003;57018;50.278;19.134;2022-07-23T07:04:40;48.00;39.75;25.50
69746;PMS7003;57018;50.278;19.134;2022-07-23T07:07:06;45.00;38.25;24.50
69746;PMS7003;57018;50.278;19.134;2022-07-23T07:09:32;43.25;36.25;24.50
69746;PMS7003;57018;50.278;19.134;2022-07-23T07:11:59;39.00;34.25;23.50
69746;PMS7003;57018;50.278;19.134;2022-07-23T07:14:25;42.50;37.00;24.50
69746;PMS7003;57018;50.278;19.134;2022-07-23T07:16:51;43.25;37.00;25.00
69746;PMS7003;57018;50.278;19.134;2022-07-23T07:19:17;48.25;41.00;26.50
69746;PMS7003;57018;50.278;19.134;2022-07-23T07:21:43;47.25;39.25;26.00
69746;PMS7003;57018;50.278;19.134;2022-07-23T07:24:09;47.00;39.25;26.00
69746;PMS7003;57018;50.278;19.134;2022-07-23T07:26:35;42.00;36.50;24.25
69746;PMS7003;57018;50.278;19.134;2022-07-23T07:29:01;45.75;38.00;24.50
69746;PMS7003;57018;50.278;19.134;2022-07-23T07:31:28;41.25;34.25;22.50
69746;PMS7003;57018;50.278;19.134;2022-07-23T07:33:54;40.00;35.50;24.00
69746;PMS7003;57018;50.278;19.134;2022-07-23T07:36:22;43.00;37.25;23.50
69746;PMS7003;57018;50.278;19.134;2022-07-23T07:38:48;42.75;36.00;24.00
69746;PMS7003;57018;50.278;19.134;2022-07-23T07:41:15;42.00;35.00;23.25
69746;PMS7003;57018;50.278;19.134;2022-07-23T07:43:41;40.00;34.25;22.50
69746;PMS7003;57018;50.278;19.134;2022-07-23T07:46:07;40.50;34.75;22.50
69746;PMS7003;57018;50.278;19.134;2022-07-23T07:48:38;43.75;37.00;24.00
69746;PMS7003;57018;50.278;19.134;2022-07-23T07:51:04;41.00;35.75;23.50
69746;PMS7003;57018;50.278;19.134;2022-07-23T07:53:30;43.50;33.25;23.50
69746;PMS7003;57018;50.278;19.134;2022-07-23T07:55:56;37.25;33.00;23.00
69746;PMS7003;57018;50.278;19.134;2022-07-23T07:58:22;37.75;33.25;22.50
69746;PMS7003;57018;50.278;19.134;2022-07-23T08:00:49;36.75;32.75;23.25
69746;PMS7003;57018;50.278;19.134;2022-07-23T08:03:15;43.25;33.75;23.75
69746;PMS7003;57018;50.278;19.134;2022-07-23T08:05:41;37.75;32.25;23.25
69746;PMS7003;57018;50.278;19.134;2022-07-23T08:08:07;39.25;35.50;23.00
69746;PMS7003;57018;50.278;19.134;2022-07-23T08:10:35;35.50;32.25;22.75
69746;PMS7003;57018;50.278;19.134;2022-07-23T08:13:01;34.75;31.75;21.00
69746;PMS7003;57018;50.278;19.134;2022-07-23T08:15:28;40.75;35.50;23.75
69746;PMS7003;57018;50.278;19.134;2022-07-23T08:17:55;36.25;33.75;22.50
69746;PMS7003;57018;50.278;19.134;2022-07-23T08:20:22;40.75;34.25;23.75
69746;PMS7003;57018;50.278;19.134;2022-07-23T08:22:50;36.50;31.25;22.25
69746;PMS7003;57018;50.278;19.134;2022-07-23T08:27:52;32.25;30.75;20.50
69746;PMS7003;57018;50.278;19.134;2022-07-23T08:30:19;39.00;30.50;21.25
69746;PMS7003;57018;50.278;19.134;2022-07-23T08:32:53;27.00;27.00;18.25
69746;PMS7003;57018;50.278;19.134;2022-07-23T08:37:59;26.00;24.00;18.50
69746;PMS7003;57018;50.278;19.134;2022-07-23T08:40:28;30.75;28.75;20.00
69746;PMS7003;57018;50.278;19.134;2022-07-23T08:42:56;28.50;27.25;17.50
69746;PMS7003;57018;50.278;19.134;2022-07-23T08:45:24;29.50;27.25;20.25
69746;PMS7003;57018;50.278;19.134;2022-07-23T08:47:53;31.50;27.75;19.75
69746;PMS7003;57018;50.278;19.134;2022-07-23T08:50:21;26.50;24.75;16.75
69746;PMS7003;57018;50.278;19.134;2022-07-23T08:52:48;22.75;21.25;16.75
69746;PMS7003;57018;50.278;19.134;2022-07-23T08:55:16;27.25;26.25;19.00
69746;PMS7003;57018;50.278;19.134;2022-07-23T08:57:44;29.75;25.25;18.00
69746;PMS7003;57018;50.278;19.134;2022-07-23T09:00:13;22.25;21.75;15.50
69746;PMS7003;57018;50.278;19.134;2022-07-23T09:02:40;23.50;23.00;16.75
69746;PMS7003;57018;50.278;19.134;2022-07-23T09:05:08;25.75;24.25;16.50
69746;PMS7003;57018;50.278;19.134;2022-07-23T09:07:37;22.25;21.00;15.25
69746;PMS7003;57018;50.278;19.134;2022-07-23T09:10:06;24.75;24.00;18.75
69746;PMS7003;57018;50.278;19.134;2022-07-23T09:12:34;22.75;22.00;16.75
69746;PMS7003;57018;50.278;19.134;2022-07-23T09:15:06;21.25;21.25;15.75
69746;PMS7003;57018;50.278;19.134;2022-07-23T09:17:41;21.00;21.00;14.00
69746;PMS7003;57018;50.278;19.134;2022-07-23T09:20:13;24.25;19.50;15.75
69746;PMS7003;57018;50.278;19.134;2022-07-23T09:22:45;23.75;23.25;18.25
69746;PMS7003;57018;50.278;19.134;2022-07-23T09:25:17;20.75;20.00;13.75
69746;PMS7003;57018;50.278;19.134;2022-07-23T09:27:54;22.50;21.75;14.50
69746;PMS7003;57018;50.278;19.134;2022-07-23T09:30:28;18.00;17.00;12.75
69746;PMS7003;57018;50.278;19.134;2022-07-23T09:33:09;16.50;16.50;13.25
69746;PMS7003;57018;50.278;19.134;2022-07-23T09:38:18;19.25;19.25;14.25
69746;PMS7003;57018;50.278;19.134;2022-07-23T09:40:47;18.00;18.00;13.25
69746;PMS7003;57018;50.278;19.134;2022-07-23T09:43:25;14.50;14.50;13.00
69746;PMS7003;57018;50.278;19.134;2022-07-23T09:45:59;18.50;18.50;13.50
69746;PMS7003;57018;50.278;19.134;2022-07-23T09:48:27;23.25;20.00;14.50
69746;PMS7003;57018;50.278;19.134;2022-07-23T09:50:53;21.25;20.00;13.75
69746;PMS7003;57018;50.278;19.134;2022-07-23T09:53:23;17.75;17.75;14.25
69746;PMS7003;57018;50.278;19.134;2022-07-23T09:55:51;22.25;20.50;15.00
69746;PMS7003;57018;50.278;19.134;2022-07-23T09:58:20;22.25;21.25;13.75
69746;PMS7003;57018;50.278;19.134;2022-07-23T10:00:48;17.50;17.00;13.50
69746;PMS7003;57018;50.278;19.134;2022-07-23T10:03:15;20.00;19.50;13.50
69746;PMS7003;57018;50.278;19.134;2022-07-23T10:05:43;21.25;18.25;13.50
69746;PMS7003;57018;50.278;19.134;2022-07-23T10:08:13;19.50;18.00;13.00
69746;PMS7003;57018;50.278;19.134;2022-07-23T10:10:42;21.00;20.75;15.75
69746;PMS7003;57018;50.278;19.134;2022-07-23T10:13:14;18.75;18.00;12.25
69746;PMS7003;57018;50.278;19.134;2022-07-23T10:15:42;21.50;20.50;15.00
69746;PMS7003;57018;50.278;19.134;2022-07-23T10:18:09;19.25;18.25;12.25
69746;PMS7003;57018;50.278;19.134;2022-07-23T10:20:38;17.75;17.75;13.75
69746;PMS7003;57018;50.278;19.134;2022-07-23T10:23:27;23.25;21.50;13.75
69746;PMS7003;57018;50.278;19.134;2022-07-23T10:28:52;27.00;22.75;13.75
69746;PMS7003;57018;50.278;19.134;2022-07-23T10:31:20;19.25;19.00;13.75
69746;PMS7003;57018;50.278;19.134;2022-07-23T10:33:56;22.50;20.75;14.25
69746;PMS7003;57018;50.278;19.134;2022-07-23T10:39:31;24.00;23.75;17.00
69746;PMS7003;57018;50.278;19.134;2022-07-23T10:41:51;19.50;18.75;14.00
69746;PMS7003;57018;50.278;19.134;2022-07-23T10:44:18;20.00;18.25;14.00
69746;PMS7003;57018;50.278;19.134;2022-07-23T10:49:49;21.00;19.25;14.25
69746;PMS7003;57018;50.278;19.134;2022-07-23T10:52:16;19.00;19.00;13.25
69746;PMS7003;57018;50.278;19.134;2022-07-23T10:54:48;19.50;18.50;12.50
69746;PMS7003;57018;50.278;19.134;2022-07-23T10:57:17;19.50;19.50;14.25
69746;PMS7003;57018;50.278;19.134;2022-07-23T11:02:44;20.75;20.25;15.50
69746;PMS7003;57018;50.278;19.134;2022-07-23T11:05:13;20.00;20.00;13.75
69746;PMS7003;57018;50.278;19.134;2022-07-23T11:10:39;23.25;22.50;15.50
69746;PMS7003;57018;50.278;19.134;2022-07-23T11:32:00;21.50;21.00;14.00
69746;PMS7003;57018;50.278;19.134;2022-07-23T11:37:06;21.25;19.00;14.25
69746;PMS7003;57018;50.278;19.134;2022-07-23T11:39:35;10.25;9.50;5.50
69746;PMS7003;57018;50.278;19.134;2022-07-23T11:42:02;16.00;15.75;12.25
69746;PMS7003;57018;50.278;19.134;2022-07-23T11:44:32;18.00;16.25;12.75
69746;PMS7003;57018;50.278;19.134;2022-07-23T11:47:01;19.50;19.00;14.00
69746;PMS7003;57018;50.278;19.134;2022-07-23T11:49:29;21.00;19.25;13.00
69746;PMS7003;57018;50.278;19.134;2022-07-23T11:52:09;18.50;17.25;13.50
69746;PMS7003;57018;50.278;19.134;2022-07-23T11:54:49;19.00;18.50;14.50
69746;PMS7003;57018;50.278;19.134;2022-07-23T11:57:19;23.00;21.25;14.75
69746;PMS7003;57018;50.278;19.134;2022-07-23T11:59:47;16.00;15.25;11.00
69746;PMS7003;57018;50.278;19.134;2022-07-23T12:02:16;19.25;15.25;10.25
69746;PMS7003;57018;50.278;19.134;2022-07-23T12:07:27;24.25;19.00;14.25
69746;PMS7003;57018;50.278;19.134;2022-07-23T12:09:57;23.00;21.75;15.25
69746;PMS7003;57018;50.278;19.134;2022-07-23T12:12:25;23.25;20.50;15.25
69746;PMS7003;57018;50.278;19.134;2022-07-23T12:17:30;22.75;19.75;15.25
69746;PMS7003;57018;50.278;19.134;2022-07-23T12:19:59;19.75;17.50;13.75
69746;PMS7003;57018;50.278;19.134;2022-07-23T12:22:33;19.75;19.75;14.25
69746;PMS7003;57018;50.278;19.134;2022-07-23T12:25:04;23.50;23.25;16.00
69746;PMS7003;57018;50.278;19.134;2022-07-23T12:27:33;20.00;20.00;16.50
69746;PMS7003;57018;50.278;19.134;2022-07-23T12:30:14;17.75;16.50;11.25
69746;PMS7003;57018;50.278;19.134;2022-07-23T12:32:44;19.25;18.50;12.25
69746;PMS7003;57018;50.278;19.134;2022-07-23T12:35:13;19.00;19.00;13.50
69746;PMS7003;57018;50.278;19.134;2022-07-23T12:37:40;15.75;15.75;11.75
69746;PMS7003;57018;50.278;19.134;2022-07-23T12:40:27;15.25;15.25;12.50
69746;PMS7003;57018;50.278;19.134;2022-07-23T12:43:24;18.25;17.50;13.25
69746;PMS7003;57018;50.278;19.134;2022-07-23T12:45:53;18.50;18.50;14.25
69746;PMS7003;57018;50.278;19.134;2022-07-23T12:48:27;19.00;18.50;14.25
69746;PMS7003;57018;50.278;19.134;2022-07-23T12:50:56;19.50;19.50;14.25
69746;PMS7003;57018;50.278;19.134;2022-07-23T12:53:25;16.00;16.00;12.00
69746;PMS7003;57018;50.278;19.134;2022-07-23T12:55:58;19.25;17.75;12.75
69746;PMS7003;57018;50.278;19.134;2022-07-23T12:58:26;22.00;21.25;15.50
69746;PMS7003;57018;50.278;19.134;2022-07-23T13:00:59;17.50;16.25;12.00
69746;PMS7003;57018;50.278;19.134;2022-07-23T13:03:34;17.50;16.50;12.25
69746;PMS7003;57018;50.278;19.134;2022-07-23T13:06:03;17.25;17.25;12.25
69746;PMS7003;57018;50.278;19.134;2022-07-23T13:08:31;19.25;17.50;13.00
69746;PMS7003;57018;50.278;19.134;2022-07-23T13:10:59;18.25;17.75;13.25
69746;PMS7003;57018;50.278;19.134;2022-07-23T13:13:27;19.25;18.00;13.50
69746;PMS7003;57018;50.278;19.134;2022-07-23T13:15:54;18.25;16.25;13.75
69746;PMS7003;57018;50.278;19.134;2022-07-23T13:18:21;20.00;19.25;12.50
69746;PMS7003;57018;50.278;19.134;2022-07-23T13:20:48;20.75;20.75;15.00
69746;PMS7003;57018;50.278;19.134;2022-07-23T13:23:15;19.00;16.75;13.00
69746;PMS7003;57018;50.278;19.134;2022-07-23T13:25:42;20.25;20.00;14.25
69746;PMS7003;57018;50.278;19.134;2022-07-23T13:28:09;19.75;18.00;13.25
69746;PMS7003;57018;50.278;19.134;2022-07-23T13:30:35;20.50;19.00;14.00
69746;PMS7003;57018;50.278;19.134;2022-07-23T13:33:03;18.50;18.50;13.50
69746;PMS7003;57018;50.278;19.134;2022-07-23T13:35:30;20.00;20.00;14.00
69746;PMS7003;57018;50.278;19.134;2022-07-23T13:37:57;18.00;17.25;12.25
69746;PMS7003;57018;50.278;19.134;2022-07-23T13:40:23;24.00;20.00;14.25
69746;PMS7003;57018;50.278;19.134;2022-07-23T13:42:49;17.00;17.00;14.25
69746;PMS7003;57018;50.278;19.134;2022-07-23T13:45:15;20.50;19.25;13.00
69746;PMS7003;57018;50.278;19.134;2022-07-23T13:47:41;24.00;24.00;15.75
69746;PMS7003;57018;50.278;19.134;2022-07-23T13:50:07;20.00;20.00;14.00
69746;PMS7003;57018;50.278;19.134;2022-07-23T13:52:34;20.50;18.75;14.00
69746;PMS7003;57018;50.278;19.134;2022-07-23T13:55:04;18.75;18.50;14.50
69746;PMS7003;57018;50.278;19.134;2022-07-23T13:57:31;18.00;18.00;16.00
69746;PMS7003;57018;50.278;19.134;2022-07-23T13:59:59;21.00;21.00;14.25
69746;PMS7003;57018;50.278;19.134;2022-07-23T14:02:25;25.50;22.75;16.50
69746;PMS7003;57018;50.278;19.134;2022-07-23T14:04:52;23.75;22.50;16.25
69746;PMS7003;57018;50.278;19.134;2022-07-23T14:07:19;21.00;20.00;14.25
69746;PMS7003;57018;50.278;19.134;2022-07-23T14:09:45;24.00;24.00;16.50
69746;PMS7003;57018;50.278;19.134;2022-07-23T14:12:11;21.75;21.50;15.00
69746;PMS7003;57018;50.278;19.134;2022-07-23T14:14:37;22.75;20.00;14.25
69746;PMS7003;57018;50.278;19.134;2022-07-23T14:17:06;22.75;22.75;15.75
69746;PMS7003;57018;50.278;19.134;2022-07-23T14:19:32;24.50;22.50;16.00
69746;PMS7003;57018;50.278;19.134;2022-07-23T14:21:59;21.50;21.50;15.75
69746;PMS7003;57018;50.278;19.134;2022-07-23T14:24:25;22.75;22.75;17.75
69746;PMS7003;57018;50.278;19.134;2022-07-23T14:26:51;22.00;18.00;10.50
69746;PMS7003;57018;50.278;19.134;2022-07-23T14:29:17;21.25;20.75;14.50